createdAt,value
2023-04-01T00:03:24.892Z,94625.31
2023-04-01T00:08:31.314Z,94627.75
2023-04-01T00:13:35.617Z,94625.03
2023-04-01T00:18:39.483Z,94629.19
2023-04-01T00:23:42.147Z,94593.47
2023-04-01T00:28:49.743Z,94633.53
2023-04-01T00:34:00.580Z,94647.47
2023-04-01T00:39:06.659Z,94633.94
2023-04-01T00:44:29.630Z,94635.38
2023-04-01T00:49:38.329Z,94640.53
2023-04-01T00:54:43.476Z,94645.69
2023-04-01T00:59:47.749Z,94649.47
2023-04-01T01:04:52.579Z,94645.25
2023-04-01T01:10:21.630Z,94643.38
2023-04-01T01:15:32.880Z,94628.63
2023-04-01T01:20:50.570Z,94617.78
2023-04-01T01:26:32.583Z,94593.94
2023-04-01T01:31:42.717Z,94569.59
2023-04-01T01:36:47.071Z,94588.78
2023-04-01T01:41:51.679Z,94574.72
2023-04-01T01:46:54.426Z,94587.91
2023-04-01T01:51:57.211Z,94609.47
2023-04-01T01:57:10.963Z,94598.81
2023-04-01T02:02:17.298Z,94607.16
2023-04-01T02:07:23.591Z,94604.34
2023-04-01T02:12:26.363Z,94621.16
2023-04-01T02:17:32.492Z,94603.69
2023-04-01T02:22:42.874Z,94613.78
2023-04-01T02:27:46.280Z,94598.25
2023-04-01T02:32:48.900Z,94599.66
2023-04-01T02:37:53.682Z,94597.47
2023-04-01T02:42:56.212Z,94595.94
2023-04-01T02:47:58.442Z,94600.34
2023-04-01T02:53:04.070Z,94582.44
2023-04-01T02:58:06.272Z,94583.88
2023-04-01T03:03:10.936Z,94584.03
2023-04-01T03:08:13.808Z,94569.28
2023-04-01T03:13:16.363Z,94592.38
2023-04-01T03:18:22.328Z,94559.38
2023-04-01T03:23:25.444Z,94573.03
2023-04-01T03:28:27.947Z,94563.00
2023-04-01T03:33:32.976Z,94577.59
2023-04-01T03:38:37.872Z,94569.59
2023-04-01T03:43:40.160Z,94577.16
2023-04-01T03:48:42.801Z,94590.16
2023-04-01T03:53:45.124Z,94590.81
2023-04-01T03:58:47.640Z,94602.56
2023-04-01T04:03:51.558Z,94610.75
2023-04-01T04:08:54.386Z,94625.38
2023-04-01T04:13:58.315Z,94607.63
2023-04-01T04:19:01.547Z,94617.50
2023-04-01T04:24:03.970Z,94611.84
2023-04-01T04:29:25.812Z,94612.03
2023-04-01T04:34:30.727Z,94610.13
2023-04-01T04:39:34.132Z,94590.19
2023-04-01T04:44:39.668Z,94584.22
2023-04-01T04:49:47.245Z,94582.97
2023-04-01T04:54:50.080Z,94593.97
2023-04-01T04:59:52.917Z,94601.81
2023-04-01T05:05:05.423Z,94590.38
2023-04-01T05:10:10.382Z,94582.97
2023-04-01T05:15:12.763Z,94581.25
2023-04-01T05:20:16.986Z,94581.25
2023-04-01T05:25:19.708Z,94573.25
2023-04-01T05:30:22.477Z,94582.81
2023-04-01T05:35:40.450Z,94580.31
2023-04-01T05:40:43.750Z,94529.44
2023-04-01T05:45:46.874Z,94567.91
2023-04-01T05:50:51.085Z,94596.47
2023-04-01T05:55:54.683Z,94604.00
2023-04-01T06:01:11.247Z,94609.81
2023-04-01T06:06:27.888Z,94607.16
2023-04-01T06:11:48.212Z,94614.53
2023-04-01T06:17:11.860Z,94627.72
2023-04-01T06:22:14.015Z,94635.41
2023-04-01T06:27:43.733Z,94633.38
2023-04-01T06:33:02.086Z,94612.97
2023-04-01T06:38:38.010Z,94617.69
2023-04-01T06:44:19.988Z,94608.88
2023-04-01T06:49:51.004Z,94621.94
2023-04-01T06:55:28.497Z,94611.72
2023-04-01T07:01:02.353Z,94628.50
2023-04-01T07:06:07.060Z,94641.25
2023-04-01T07:11:27.783Z,94649.75
2023-04-01T07:16:54.754Z,94645.31
2023-04-01T07:22:04.822Z,94634.81
2023-04-01T07:27:28.221Z,94654.75
2023-04-01T07:32:37.479Z,94664.47
2023-04-01T07:38:13.066Z,94640.13
2023-04-01T07:43:43.310Z,94633.00
2023-04-01T07:49:12.318Z,94623.78
2023-04-01T07:54:34.868Z,94608.16
2023-04-01T08:00:07.695Z,94608.16
2023-04-01T08:05:40.938Z,94617.97
2023-04-01T08:11:13.823Z,94610.09
2023-04-01T08:16:51.548Z,94612.91
2023-04-01T08:22:10.146Z,94627.66
2023-04-01T08:27:19.724Z,94619.53
2023-04-01T08:32:44.343Z,94633.16
2023-04-01T08:37:51.966Z,94647.31
2023-04-01T08:43:38.270Z,94655.34
2023-04-01T08:49:06.242Z,94642.50
2023-04-01T08:54:18.466Z,94627.13
2023-04-01T09:00:12.476Z,94655.31
2023-04-01T09:05:50.918Z,94655.38
2023-04-01T09:11:28.404Z,94660.28
2023-04-01T09:17:21.110Z,94641.13
2023-04-01T09:22:26.064Z,94624.50
2023-04-01T09:27:34.033Z,94621.22
2023-04-01T09:32:52.243Z,94619.50
2023-04-01T09:38:13.240Z,94612.34
2023-04-01T09:43:24.011Z,94629.88
2023-04-01T09:56:14.268Z,94662.44
2023-04-01T10:01:58.288Z,94658.06
2023-04-01T10:07:31.425Z,94662.59
2023-04-01T10:13:01.534Z,94653.47
2023-04-01T10:18:22.903Z,94639.28
2023-04-01T10:23:50.620Z,94627.81
2023-04-01T10:29:40.258Z,94614.72
2023-04-01T10:35:13.056Z,94614.97
2023-04-01T10:40:41.653Z,94605.78
2023-04-01T10:46:56.233Z,94601.34
2023-04-01T10:52:31.835Z,94591.09
2023-04-01T10:57:58.609Z,94558.00
2023-04-01T11:04:08.048Z,94575.41
2023-04-01T11:09:32.979Z,94576.75
2023-04-01T11:15:00.569Z,94603.00
2023-04-01T11:20:37.569Z,94596.84
2023-04-01T11:25:55.031Z,94603.53
2023-04-01T11:31:47.627Z,94599.47
2023-04-01T11:36:58.535Z,94610.28
2023-04-01T11:42:50.863Z,94598.41
2023-04-01T11:48:26.441Z,94600.78
2023-04-01T11:53:37.961Z,94564.56
2023-04-01T11:59:11.441Z,94577.97
2023-04-01T12:04:21.213Z,94546.28
2023-04-01T12:09:53.460Z,94530.56
2023-04-01T12:15:06.363Z,94546.88
2023-04-01T12:20:32.262Z,94524.03
2023-04-01T12:25:47.910Z,94535.53
2023-04-01T12:31:01.403Z,94516.47
2023-04-01T12:36:23.676Z,94504.91
2023-04-01T12:41:28.608Z,94489.72
2023-04-01T12:46:55.498Z,94452.84
2023-04-01T12:52:25.475Z,94476.59
2023-04-01T12:57:54.780Z,94461.78
2023-04-01T13:03:41.184Z,94437.59
2023-04-01T13:09:09.088Z,94439.63
2023-04-01T13:14:31.892Z,94443.53
2023-04-01T13:20:06.381Z,94438.16
2023-04-01T13:25:36.532Z,94436.59
2023-04-01T13:30:57.529Z,94425.28
2023-04-01T13:36:12.854Z,94419.84
2023-04-01T13:41:46.284Z,94412.41
2023-04-01T13:47:03.068Z,94412.53
2023-04-01T13:52:26.540Z,94411.97
2023-04-01T13:57:57.314Z,94416.31
2023-04-01T14:03:20.279Z,94400.78
2023-04-01T14:08:51.468Z,94392.66
2023-04-01T14:14:31.799Z,94386.03
2023-04-01T14:19:50.952Z,94376.69
2023-04-01T14:25:20.226Z,94352.38
2023-04-01T14:30:49.017Z,94362.00
2023-04-01T14:35:55.402Z,94377.28
2023-04-01T14:41:02.496Z,94365.50
2023-04-01T14:46:29.834Z,94371.53
2023-04-01T14:51:41.325Z,94367.88
2023-04-01T14:56:54.746Z,94340.75
2023-04-01T15:02:34.428Z,94329.13
2023-04-01T15:07:47.519Z,94322.63
2023-04-01T15:12:54.732Z,94309.88
2023-04-01T15:18:09.297Z,94317.03
2023-04-01T15:23:14.161Z,94312.75
2023-04-01T15:28:18.834Z,94310.06
2023-04-01T15:33:23.676Z,94287.19
2023-04-01T15:38:42.308Z,94275.13
2023-04-01T15:43:50.379Z,94282.97
2023-04-01T15:49:15.067Z,94313.50
2023-04-01T15:54:48.669Z,94337.31
2023-04-01T16:00:12.296Z,94328.84
2023-04-01T16:05:46.763Z,94330.41
2023-04-01T16:11:07.303Z,94329.16
2023-04-01T16:16:27.907Z,94336.22
2023-04-01T16:21:40.274Z,94343.06
2023-04-01T16:26:54.176Z,94339.72
2023-04-01T16:32:24.101Z,94356.91
2023-04-01T16:37:54.546Z,94338.91
2023-04-01T16:43:30.200Z,94352.34
2023-04-01T16:48:51.414Z,94331.34
2023-04-01T16:54:26.197Z,94323.00
2023-04-01T16:59:51.562Z,94332.28
2023-04-01T17:05:10.757Z,94338.63
2023-04-01T17:11:01.420Z,94344.66
2023-04-01T17:16:26.750Z,94349.06
2023-04-01T17:21:53.562Z,94327.06
2023-04-01T17:27:24.732Z,94331.56
2023-04-01T17:33:18.734Z,94325.59
2023-04-01T17:38:58.121Z,94316.75
2023-04-01T17:44:22.186Z,94321.13
2023-04-01T17:49:52.009Z,94323.19
2023-04-01T17:55:23.321Z,94328.88
2023-04-01T18:01:02.736Z,94326.06
2023-04-01T18:06:19.248Z,94319.53
2023-04-01T18:11:46.934Z,94307.91
2023-04-01T18:16:52.256Z,94319.38
2023-04-01T18:22:19.542Z,94315.78
2023-04-01T18:27:40.138Z,94305.75
2023-04-01T18:32:57.042Z,94307.16
2023-04-01T18:38:08.067Z,94312.47
2023-04-01T18:43:39.053Z,94324.44
2023-04-01T18:48:48.659Z,94334.78
2023-04-01T18:54:00.631Z,94350.25
2023-04-01T18:59:11.398Z,94332.84
2023-04-01T19:04:43.806Z,94333.56
2023-04-01T19:09:49.654Z,94348.41
2023-04-01T19:15:00.936Z,94349.22
2023-04-01T19:20:19.554Z,94335.78
2023-04-01T19:25:34.737Z,94348.44
2023-04-01T19:30:47.267Z,94343.75
2023-04-01T19:36:09.520Z,94360.41
2023-04-01T19:41:28.260Z,94357.91
2023-04-01T19:46:36.642Z,94394.69
2023-04-01T19:51:57.397Z,94398.72
2023-04-01T19:57:03.357Z,94390.94
2023-04-01T20:02:35.911Z,94416.03
2023-04-01T20:07:54.601Z,94405.78
2023-04-01T20:13:02.999Z,94423.00
2023-04-01T20:18:48.534Z,94433.72
2023-04-01T20:24:28.063Z,94438.13
2023-04-01T20:30:04.649Z,94452.72
2023-04-01T20:35:07.262Z,94454.53
2023-04-01T20:40:27.623Z,94444.69
2023-04-01T20:45:36.072Z,94467.31
2023-04-01T20:50:47.432Z,94489.13
2023-04-01T20:56:14.536Z,94475.16
2023-04-01T21:01:35.027Z,94486.25
2023-04-01T21:06:37.233Z,94489.38
2023-04-01T21:12:06.095Z,94515.59
2023-04-01T21:17:12.799Z,94497.50
2023-04-01T21:22:18.233Z,94500.94
2023-04-01T21:27:53.595Z,94511.44
2023-04-01T21:33:26.840Z,94532.66
2023-04-01T21:38:50.629Z,94525.28
2023-04-01T21:44:25.784Z,94540.69
2023-04-01T21:49:40.822Z,94557.44
2023-04-01T21:54:49.038Z,94555.50
2023-04-01T22:00:00.664Z,94549.13
2023-04-01T22:05:34.790Z,94555.94
2023-04-01T22:11:13.436Z,94577.13
2023-04-01T22:16:30.880Z,94594.09
2023-04-01T22:21:40.894Z,94589.38
2023-04-01T22:27:08.594Z,94602.47
2023-04-01T22:32:30.529Z,94605.06
2023-04-01T22:37:42.287Z,94607.88
2023-04-01T22:42:46.900Z,94612.59
2023-04-01T22:48:12.866Z,94614.47
2023-04-01T22:53:41.759Z,94627.16
2023-04-01T22:58:52.694Z,94619.28
2023-04-01T23:03:54.861Z,94626.88
2023-04-01T23:09:13.006Z,94621.09
2023-04-01T23:14:26.599Z,94626.81
2023-04-01T23:20:11.083Z,94628.50
2023-04-01T23:25:45.092Z,94628.50
2023-04-01T23:30:51.973Z,94624.34
2023-04-01T23:36:08.618Z,94612.06
2023-04-01T23:41:34.276Z,94597.53
2023-04-01T23:46:40.081Z,94609.66
2023-04-01T23:52:01.290Z,94601.38
2023-04-01T23:57:12.295Z,94602.56
